Time;durP1;ratioP1;P1;durP2;ratioP2;P2;SDS_P1;SDS_P2;PMS_P1;PMS_P2;Temp;Humidity;BMP_temperature;BMP_pressure;BME280_temperature;BME280_humidity;BME280_pressure;Samples;Min_cycle;Max_cycle;Signal;HPM_P1;HPM_P2
2021/10/06 00:01:58;;;;;;;2.53;0.60;;;11.10;75.50;;;;;;5073281;28;20039;-74
2021/10/06 00:04:24;;;;;;;2.78;0.55;;;11.00;75.80;;;;;;5073082;28;20100;-73
2021/10/06 00:06:49;;;;;;;1.67;0.38;;;11.00;75.70;;;;;;5073099;28;20059;-74
2021/10/06 00:09:15;;;;;;;2.30;0.47;;;11.00;75.50;;;;;;5073211;28;20099;-74
2021/10/06 00:11:40;;;;;;;1.17;0.30;;;11.00;75.50;;;;;;5073159;28;20032;-74
2021/10/06 00:14:08;;;;;;;0.22;0.20;;;10.90;76.00;;;;;;5072943;28;20025;-74
2021/10/06 00:16:34;;;;;;;1.27;0.30;;;10.80;75.90;;;;;;5072955;28;20097;-73
2021/10/06 00:19:00;;;;;;;2.65;0.28;;;10.80;76.40;;;;;;5072963;28;20016;-73
2021/10/06 00:21:26;;;;;;;2.80;0.45;;;10.80;76.80;;;;;;5072898;28;20068;-73
2021/10/06 00:23:51;;;;;;;2.10;0.43;;;10.70;76.80;;;;;;5072840;28;20513;-73
2021/10/06 00:26:17;;;;;;;1.45;0.30;;;10.80;77.10;;;;;;5072847;28;20182;-73
2021/10/06 00:28:43;;;;;;;3.00;0.63;;;10.70;77.20;;;;;;5073177;28;20020;-73
2021/10/06 00:31:08;;;;;;;2.60;0.30;;;10.70;77.70;;;;;;5071486;28;20052;-73
2021/10/06 00:33:34;;;;;;;1.48;0.47;;;10.60;77.60;;;;;;5073562;28;20150;-73
2021/10/06 00:35:59;;;;;;;2.25;0.40;;;10.60;77.80;;;;;;5072976;28;20033;-73
2021/10/06 00:38:26;;;;;;;4.70;0.70;;;10.60;78.20;;;;;;5072424;28;20095;-73
2021/10/06 00:40:53;;;;;;;2.63;0.40;;;10.60;77.90;;;;;;5072666;28;20077;-73
2021/10/06 00:43:19;;;;;;;2.33;0.40;;;10.50;78.10;;;;;;5074608;28;20492;-72
2021/10/06 00:45:44;;;;;;;3.17;0.38;;;10.50;78.10;;;;;;5077070;28;20030;-74
2021/10/06 00:48:10;;;;;;;2.05;0.55;;;10.60;78.10;;;;;;5075679;28;20100;-73
2021/10/06 00:50:37;;;;;;;2.00;0.40;;;10.60;77.80;;;;;;5076984;28;20074;-73
2021/10/06 00:53:04;;;;;;;2.88;0.70;;;10.60;77.70;;;;;;5076741;28;20070;-73
2021/10/06 00:55:29;;;;;;;3.72;0.70;;;10.60;77.60;;;;;;5076840;28;20473;-73
2021/10/06 00:57:55;;;;;;;4.10;0.77;;;10.50;77.30;;;;;;5076780;28;20032;-72
2021/10/06 01:00:20;;;;;;;3.35;0.65;;;10.60;77.20;;;;;;5076650;28;20029;-73
2021/10/06 01:02:46;;;;;;;2.92;0.60;;;10.60;77.20;;;;;;5076650;28;20063;-72
2021/10/06 01:05:12;;;;;;;3.75;0.50;;;10.60;76.90;;;;;;5075252;28;20385;-73
2021/10/06 01:07:38;;;;;;;3.72;0.40;;;10.50;76.50;;;;;;5076453;28;20087;-73
2021/10/06 01:10:06;;;;;;;2.05;0.50;;;10.50;76.70;;;;;;5076421;28;20350;-73
2021/10/06 01:12:33;;;;;;;2.47;0.60;;;10.50;76.80;;;;;;5076405;28;20118;-73
2021/10/06 01:15:00;;;;;;;1.00;0.50;;;10.50;76.40;;;;;;5076162;28;20032;-73
2021/10/06 01:17:26;;;;;;;4.43;0.90;;;10.50;76.60;;;;;;5076344;28;20147;-73
2021/10/06 01:19:51;;;;;;;2.05;0.52;;;10.60;76.20;;;;;;5076168;28;20108;-72
2021/10/06 01:22:17;;;;;;;4.55;0.85;;;10.50;76.30;;;;;;5076149;28;20123;-74
2021/10/06 01:24:43;;;;;;;2.53;0.50;;;10.60;75.70;;;;;;5076149;28;20028;-73
2021/10/06 01:27:10;;;;;;;3.92;0.93;;;10.60;75.90;;;;;;5076107;28;20029;-73
2021/10/06 01:29:36;;;;;;;3.85;0.60;;;10.60;75.80;;;;;;5075808;28;20021;-73
2021/10/06 01:32:09;;;;;;;2.03;0.40;;;10.60;75.30;;;;;;5076089;28;20029;-73
2021/10/06 01:34:34;;;;;;;1.98;0.55;;;10.60;75.50;;;;;;5075968;28;20047;-74
2021/10/06 01:37:00;;;;;;;1.20;0.40;;;10.60;75.10;;;;;;5075849;28;20548;-73
2021/10/06 01:39:25;;;;;;;1.60;0.40;;;10.70;75.20;;;;;;5075866;28;20102;-73
2021/10/06 01:41:51;;;;;;;2.35;0.60;;;10.70;74.90;;;;;;5075639;28;20045;-73
2021/10/06 01:44:19;;;;;;;2.03;0.50;;;10.70;74.70;;;;;;5075820;28;20035;-72
2021/10/06 01:46:45;;;;;;;2.30;0.68;;;10.70;74.70;;;;;;5074421;28;20108;-73
2021/10/06 01:49:12;;;;;;;2.45;0.47;;;10.70;74.80;;;;;;5075672;28;20105;-73
2021/10/06 01:51:38;;;;;;;2.33;0.52;;;10.60;75.10;;;;;;5075732;28;20025;-73
2021/10/06 01:54:04;;;;;;;2.22;0.55;;;10.50;75.70;;;;;;5075394;28;20016;-73
2021/10/06 01:56:31;;;;;;;5.55;0.60;;;10.40;76.00;;;;;;5074452;28;20433;-73
2021/10/06 01:58:56;;;;;;;1.08;0.55;;;10.40;76.20;;;;;;5075512;28;20020;-73
2021/10/06 02:01:22;;;;;;;1.75;0.50;;;10.30;76.30;;;;;;5075423;28;20078;-73
2021/10/06 02:03:47;;;;;;;2.58;0.65;;;10.30;76.10;;;;;;5075476;28;20142;-73
2021/10/06 02:06:13;;;;;;;5.40;0.82;;;10.40;76.20;;;;;;5075300;28;20056;-73
2021/10/06 02:08:38;;;;;;;3.80;0.70;;;10.40;76.20;;;;;;5075534;28;20024;-74
2021/10/06 02:11:04;;;;;;;5.80;0.82;;;10.40;76.00;;;;;;5075274;28;20435;-73
2021/10/06 02:13:30;;;;;;;3.65;0.50;;;10.30;75.90;;;;;;5075181;28;20029;-73
2021/10/06 02:15:55;;;;;;;3.22;0.70;;;10.40;75.70;;;;;;5075211;28;20077;-73
2021/10/06 02:18:21;;;;;;;1.95;0.40;;;10.40;75.40;;;;;;5075201;28;20025;-73
2021/10/06 02:20:46;;;;;;;1.15;0.35;;;10.40;75.70;;;;;;5075175;28;20078;-73
2021/10/06 02:23:12;;;;;;;3.80;0.60;;;10.50;75.70;;;;;;5075099;28;20036;-74
2021/10/06 02:25:38;;;;;;;2.72;0.50;;;10.50;75.20;;;;;;5075009;28;20074;-73
2021/10/06 02:28:04;;;;;;;3.70;0.57;;;10.60;74.60;;;;;;5075135;28;20028;-73
2021/10/06 02:30:30;;;;;;;2.92;0.40;;;10.50;74.50;;;;;;5074786;28;20084;-73
2021/10/06 02:32:55;;;;;;;5.10;0.47;;;10.60;74.80;;;;;;5074885;28;20413;-73
2021/10/06 02:35:21;;;;;;;3.10;0.32;;;10.60;74.80;;;;;;5074808;28;20071;-73
2021/10/06 02:37:47;;;;;;;2.92;0.50;;;10.50;74.40;;;;;;5074847;28;20082;-73
2021/10/06 02:40:16;;;;;;;2.05;0.40;;;10.40;74.40;;;;;;5073359;28;20020;-73
2021/10/06 02:42:42;;;;;;;3.00;0.50;;;10.40;74.30;;;;;;5074731;28;20035;-73
2021/10/06 02:45:10;;;;;;;0.82;0.30;;;10.40;74.40;;;;;;5074566;28;20036;-75
2021/10/06 02:47:36;;;;;;;1.75;0.20;;;10.40;74.30;;;;;;5074690;28;20078;-74
2021/10/06 02:50:03;;;;;;;1.80;0.30;;;10.30;74.50;;;;;;5074611;28;20059;-74
2021/10/06 02:52:29;;;;;;;4.38;0.82;;;10.20;74.60;;;;;;5076255;28;20081;-74
2021/10/06 02:54:55;;;;;;;0.55;0.40;;;10.20;76.00;;;;;;5078884;28;20032;-75
2021/10/06 02:57:20;;;;;;;1.75;0.32;;;10.20;75.40;;;;;;5074679;28;20095;-74
2021/10/06 02:59:46;;;;;;;1.83;0.40;;;10.20;76.20;;;;;;5074504;28;20048;-75
2021/10/06 03:02:12;;;;;;;2.10;0.50;;;10.10;75.40;;;;;;5074189;28;20033;-73
2021/10/06 03:04:37;;;;;;;6.03;0.80;;;10.00;74.60;;;;;;5074337;28;20028;-73
2021/10/06 03:07:03;;;;;;;3.88;0.43;;;10.00;74.90;;;;;;5073546;28;20052;-74
2021/10/06 03:09:28;;;;;;;1.48;0.20;;;10.00;74.20;;;;;;5072922;28;20107;-75
2021/10/06 03:11:54;;;;;;;3.00;0.38;;;10.00;74.30;;;;;;5074252;28;20090;-75
2021/10/06 03:14:19;;;;;;;5.30;0.60;;;10.00;74.60;;;;;;5074157;28;20024;-74
2021/10/06 03:16:45;;;;;;;1.70;0.45;;;10.00;74.80;;;;;;5074033;28;20036;-75
2021/10/06 03:19:10;;;;;;;0.90;0.45;;;10.00;74.70;;;;;;5073975;28;20025;-74
2021/10/06 03:21:36;;;;;;;1.98;0.38;;;10.00;74.90;;;;;;5073831;28;20029;-74
2021/10/06 03:24:01;;;;;;;2.35;0.60;;;10.00;75.00;;;;;;5073871;28;20039;-75
2021/10/06 03:26:27;;;;;;;1.42;0.55;;;10.00;75.10;;;;;;5072523;28;20055;-74
2021/10/06 03:28:53;;;;;;;1.38;0.40;;;10.00;75.40;;;;;;5073755;28;20066;-74
2021/10/06 03:31:18;;;;;;;2.47;0.68;;;10.10;75.60;;;;;;5073628;28;20099;-75
2021/10/06 03:33:44;;;;;;;1.30;0.50;;;10.00;75.40;;;;;;5073712;28;20563;-73
2021/10/06 03:36:09;;;;;;;1.73;0.82;;;10.00;75.40;;;;;;5075212;28;20099;-74
2021/10/06 03:38:35;;;;;;;2.75;0.57;;;10.00;75.60;;;;;;5077013;28;20033;-73
2021/10/06 03:41:00;;;;;;;5.53;1.13;;;10.00;75.50;;;;;;5076050;28;20036;-74
2021/10/06 03:43:26;;;;;;;3.45;1.30;;;9.90;75.60;;;;;;5073914;28;20024;-73
2021/10/06 03:45:51;;;;;;;6.80;1.20;;;9.90;75.90;;;;;;5073748;28;20074;-74
2021/10/06 03:48:17;;;;;;;3.45;1.13;;;9.80;76.00;;;;;;5073225;28;20071;-74
2021/10/06 03:50:44;;;;;;;3.00;0.82;;;9.80;76.00;;;;;;5073329;28;20013;-73
2021/10/06 03:53:11;;;;;;;5.75;1.17;;;9.80;75.90;;;;;;5073241;28;20376;-74
2021/10/06 03:55:38;;;;;;;4.13;1.17;;;9.90;76.10;;;;;;5073217;28;20021;-73
2021/10/06 03:58:03;;;;;;;4.13;0.90;;;9.90;76.20;;;;;;5073020;28;20104;-73
2021/10/06 04:00:29;;;;;;;1.10;0.75;;;9.90;76.30;;;;;;5073007;28;20552;-73
2021/10/06 04:02:55;;;;;;;3.03;0.88;;;9.90;76.20;;;;;;5073077;28;20511;-73
2021/10/06 04:05:21;;;;;;;4.00;1.52;;;9.90;76.30;;;;;;5072862;28;20116;-73
2021/10/06 04:07:46;;;;;;;3.92;1.73;;;9.80;76.40;;;;;;5073280;28;20024;-73
2021/10/06 04:10:12;;;;;;;3.67;0.85;;;9.80;76.80;;;;;;5073040;28;20411;-74
2021/10/06 04:12:38;;;;;;;2.55;0.90;;;9.70;77.40;;;;;;5072958;28;20039;-74
2021/10/06 04:15:04;;;;;;;4.80;1.25;;;9.70;77.90;;;;;;5073049;28;20021;-73
2021/10/06 04:17:29;;;;;;;2.95;0.82;;;9.60;78.20;;;;;;5072947;28;20028;-73
2021/10/06 04:19:55;;;;;;;2.60;0.95;;;9.60;78.60;;;;;;5073001;28;20361;-73
2021/10/06 04:22:20;;;;;;;3.08;0.73;;;9.50;78.80;;;;;;5072804;28;20032;-74
2021/10/06 04:24:46;;;;;;;1.73;1.00;;;9.40;78.70;;;;;;5072868;28;20538;-74
2021/10/06 04:27:11;;;;;;;3.88;1.15;;;9.50;79.20;;;;;;5072673;28;20031;-74
2021/10/06 04:29:37;;;;;;;4.22;0.88;;;9.40;79.30;;;;;;5071937;28;20085;-74
2021/10/06 04:32:03;;;;;;;4.05;0.90;;;9.40;79.50;;;;;;5072708;28;20056;-74
2021/10/06 04:34:29;;;;;;;4.45;1.25;;;9.40;79.40;;;;;;5072716;28;20119;-73
2021/10/06 04:36:55;;;;;;;2.20;0.82;;;9.40;79.40;;;;;;5072603;28;20041;-73
2021/10/06 04:39:20;;;;;;;4.03;1.02;;;9.40;79.40;;;;;;5072614;28;20025;-73
2021/10/06 04:41:46;;;;;;;3.95;1.00;;;9.30;79.70;;;;;;5072575;28;20546;-74
2021/10/06 04:44:12;;;;;;;3.58;0.82;;;9.30;79.90;;;;;;5072666;28;20399;-74
2021/10/06 04:46:37;;;;;;;2.90;0.80;;;9.30;80.40;;;;;;5071319;28;20020;-74
2021/10/06 04:49:03;;;;;;;1.23;0.47;;;9.20;80.00;;;;;;5072600;28;20024;-73
2021/10/06 04:51:29;;;;;;;2.25;0.75;;;9.20;80.10;;;;;;5072510;28;20071;-74
2021/10/06 04:53:55;;;;;;;3.80;1.10;;;9.30;80.00;;;;;;5072548;28;20050;-74
2021/10/06 04:56:20;;;;;;;2.53;1.13;;;9.30;79.90;;;;;;5072458;28;20435;-73
2021/10/06 04:58:46;;;;;;;4.80;1.80;;;9.40;79.90;;;;;;5072558;28;20474;-74
2021/10/06 05:01:12;;;;;;;5.72;2.20;;;9.30;79.70;;;;;;5072192;28;20056;-73
2021/10/06 05:03:37;;;;;;;5.40;2.47;;;9.30;79.70;;;;;;5070993;28;20504;-73
2021/10/06 05:06:03;;;;;;;6.07;2.70;;;9.30;79.70;;;;;;5070925;28;20028;-73
2021/10/06 05:08:29;;;;;;;5.32;1.20;;;9.40;79.50;;;;;;5072365;28;20028;-73
2021/10/06 05:10:54;;;;;;;4.05;1.08;;;9.40;78.50;;;;;;5072477;28;20021;-74
2021/10/06 05:13:20;;;;;;;5.30;0.90;;;9.40;78.50;;;;;;5072042;28;20027;-74
2021/10/06 05:15:45;;;;;;;4.03;0.80;;;9.40;78.50;;;;;;5072303;28;20036;-73
2021/10/06 05:18:11;;;;;;;6.53;0.80;;;9.40;78.80;;;;;;5072340;28;20100;-74
2021/10/06 05:20:37;;;;;;;2.15;0.90;;;9.30;78.20;;;;;;5072005;28;20057;-74
2021/10/06 05:23:03;;;;;;;4.90;1.30;;;9.40;78.60;;;;;;5077291;28;20029;-74
2021/10/06 05:25:29;;;;;;;2.53;0.80;;;9.40;78.50;;;;;;5079057;28;20103;-74
2021/10/06 05:27:56;;;;;;;5.32;0.70;;;9.40;78.50;;;;;;5076611;28;20052;-73
2021/10/06 05:30:22;;;;;;;5.78;0.75;;;9.40;78.80;;;;;;5076849;28;20045;-74
2021/10/06 05:32:50;;;;;;;2.15;0.52;;;9.50;78.50;;;;;;5075836;28;20157;-74
2021/10/06 05:35:16;;;;;;;4.85;1.00;;;9.40;78.70;;;;;;5075694;28;20017;-74
2021/10/06 05:37:43;;;;;;;1.88;0.70;;;9.40;78.90;;;;;;5074476;28;20025;-74
2021/10/06 05:40:09;;;;;;;2.92;1.00;;;9.40;79.10;;;;;;5075517;28;20029;-75
2021/10/06 05:42:35;;;;;;;3.75;1.10;;;9.30;79.10;;;;;;5074174;28;20047;-74
2021/10/06 05:45:00;;;;;;;2.70;1.15;;;9.20;79.30;;;;;;5075248;28;20024;-74
2021/10/06 05:47:26;;;;;;;6.28;1.92;;;9.30;80.30;;;;;;5075628;28;20389;-74
2021/10/06 05:49:54;;;;;;;7.35;2.20;;;9.40;80.00;;;;;;5075367;28;20024;-73
2021/10/06 05:52:20;;;;;;;5.70;1.80;;;9.30;79.90;;;;;;5075328;28;20040;-73
2021/10/06 05:54:45;;;;;;;4.10;1.80;;;9.30;79.70;;;;;;5075304;28;20361;-74
2021/10/06 05:57:11;;;;;;;2.97;1.10;;;9.30;79.60;;;;;;5075413;28;20421;-74
2021/10/06 05:59:37;;;;;;;7.45;1.10;;;9.20;79.60;;;;;;5075336;28;20365;-73
2021/10/06 06:02:02;;;;;;;6.13;1.75;;;9.20;79.70;;;;;;5075289;28;20041;-75
2021/10/06 06:04:28;;;;;;;6.05;2.30;;;9.20;79.80;;;;;;5075347;28;20082;-74
2021/10/06 06:06:54;;;;;;;6.57;2.55;;;9.20;80.00;;;;;;5075269;28;20545;-74
2021/10/06 06:09:21;;;;;;;7.38;1.85;;;9.10;81.30;;;;;;5075254;28;20047;-74
2021/10/06 06:11:48;;;;;;;7.03;3.17;;;9.10;81.00;;;;;;5075270;28;20047;-75
2021/10/06 06:14:13;;;;;;;4.10;2.58;;;9.20;80.70;;;;;;5075308;28;20417;-74
2021/10/06 06:16:39;;;;;;;3.80;2.05;;;9.30;80.40;;;;;;5075073;28;20159;-74
2021/10/06 06:19:04;;;;;;;7.47;2.75;;;9.30;80.20;;;;;;5074848;28;20028;-74
2021/10/06 06:21:30;;;;;;;5.82;2.03;;;9.30;79.80;;;;;;5074626;28;20077;-74
2021/10/06 06:23:56;;;;;;;3.53;1.30;;;9.40;79.60;;;;;;5074817;28;20021;-74
2021/10/06 06:26:21;;;;;;;2.33;1.00;;;9.30;79.60;;;;;;5074659;28;20461;-74
2021/10/06 06:28:47;;;;;;;3.70;1.30;;;9.30;79.70;;;;;;5074720;28;20024;-74
2021/10/06 06:31:13;;;;;;;4.68;1.10;;;9.30;79.70;;;;;;5074152;28;20492;-74
2021/10/06 06:33:39;;;;;;;4.60;1.88;;;9.30;80.10;;;;;;5074778;28;20027;-74
2021/10/06 06:36:05;;;;;;;3.13;1.70;;;9.30;80.00;;;;;;5074807;28;20029;-73
2021/10/06 06:38:31;;;;;;;6.78;1.90;;;9.40;80.10;;;;;;5074823;28;20029;-76
2021/10/06 06:40:56;;;;;;;4.97;2.30;;;9.40;79.80;;;;;;5073141;28;20106;-76
2021/10/06 06:43:22;;;;;;;5.80;2.55;;;9.40;79.70;;;;;;5073068;28;20123;-75
2021/10/06 06:45:48;;;;;;;5.75;2.50;;;9.50;79.50;;;;;;5074168;28;20025;-75
2021/10/06 06:48:13;;;;;;;4.10;2.22;;;9.60;79.30;;;;;;5074695;28;20032;-76
2021/10/06 06:50:39;;;;;;;3.92;1.58;;;9.60;79.20;;;;;;5074587;28;20552;-76
2021/10/06 06:53:05;;;;;;;3.88;1.70;;;9.60;79.10;;;;;;5074593;28;20388;-75
2021/10/06 06:55:31;;;;;;;3.97;1.20;;;9.60;79.00;;;;;;5074794;28;20025;-76
2021/10/06 06:57:56;;;;;;;4.28;0.90;;;9.50;78.80;;;;;;5074371;28;20025;-75
2021/10/06 07:00:22;;;;;;;1.67;0.65;;;9.50;78.90;;;;;;5074447;28;20529;-74
2021/10/06 07:02:48;;;;;;;3.65;1.30;;;9.50;78.90;;;;;;5073878;28;20052;-75
2021/10/06 07:05:14;;;;;;;2.08;0.68;;;9.60;79.00;;;;;;5074254;28;20437;-75
2021/10/06 07:07:40;;;;;;;3.90;1.35;;;9.70;78.90;;;;;;5074226;28;20413;-74
2021/10/06 07:10:06;;;;;;;6.75;1.35;;;9.70;78.30;;;;;;5074749;28;20020;-75
2021/10/06 07:12:32;;;;;;;3.63;1.20;;;9.70;78.30;;;;;;5074079;28;20020;-75
2021/10/06 07:14:58;;;;;;;2.60;0.68;;;9.70;78.40;;;;;;5073975;28;20034;-75
2021/10/06 07:17:24;;;;;;;4.45;1.00;;;9.60;78.30;;;;;;5074085;28;20397;-74
2021/10/06 07:19:49;;;;;;;2.83;1.10;;;9.60;78.00;;;;;;5074371;28;20103;-74
2021/10/06 07:22:16;;;;;;;2.38;1.20;;;9.60;78.10;;;;;;5073859;28;20450;-74
2021/10/06 07:24:43;;;;;;;4.45;1.05;;;9.70;78.30;;;;;;5073886;28;20465;-74
2021/10/06 07:27:10;;;;;;;4.35;1.17;;;9.80;77.20;;;;;;5073309;28;20029;-74
2021/10/06 07:29:36;;;;;;;2.58;0.93;;;9.90;77.00;;;;;;5073525;28;20012;-74
2021/10/06 07:32:02;;;;;;;5.65;1.27;;;9.90;76.90;;;;;;5073558;28;20051;-75
2021/10/06 07:34:27;;;;;;;2.60;0.88;;;9.90;77.00;;;;;;5073479;28;20052;-75
2021/10/06 07:36:53;;;;;;;5.53;1.30;;;10.10;77.10;;;;;;5072271;28;20484;-77
2021/10/06 07:39:19;;;;;;;1.25;0.77;;;10.10;77.20;;;;;;5073304;28;20021;-76
2021/10/06 07:41:45;;;;;;;5.18;1.23;;;10.30;77.80;;;;;;5073521;28;20027;-82
2021/10/06 07:44:11;;;;;;;4.55;0.93;;;10.70;82.90;;;;;;5072424;28;20025;-82
2021/10/06 07:46:36;;;;;;;5.35;0.93;;;11.00;77.10;;;;;;5073540;28;20024;-82
2021/10/06 07:49:02;;;;;;;3.15;0.90;;;11.40;76.70;;;;;;5072153;28;20028;-83
2021/10/06 07:51:28;;;;;;;3.70;1.00;;;11.80;75.20;;;;;;5073072;28;20530;-80
2021/10/06 07:53:54;;;;;;;2.40;1.20;;;12.00;72.30;;;;;;5073303;28;20101;-81
2021/10/06 07:56:20;;;;;;;2.75;1.10;;;12.10;70.40;;;;;;5073397;28;20027;-81
2021/10/06 07:58:46;;;;;;;4.07;1.30;;;12.20;70.30;;;;;;5076085;28;20469;-80
2021/10/06 08:01:12;;;;;;;3.55;1.15;;;12.30;70.00;;;;;;5080551;28;20039;-79
2021/10/06 08:03:37;;;;;;;4.68;1.02;;;12.30;68.70;;;;;;5090021;28;20036;-81
2021/10/06 08:06:03;;;;;;;5.72;0.90;;;12.20;67.60;;;;;;5081755;28;20020;-81
2021/10/06 08:08:29;;;;;;;2.88;0.70;;;12.30;67.30;;;;;;5073336;28;20056;-84
2021/10/06 08:10:56;;;;;;;6.65;0.98;;;12.20;65.30;;;;;;5071994;28;20439;-83
2021/10/06 08:13:22;;;;;;;1.85;0.88;;;12.20;65.60;;;;;;5073469;28;20024;-82
2021/10/06 08:15:48;;;;;;;5.78;1.25;;;12.30;66.70;;;;;;5073639;28;20531;-81
2021/10/06 08:18:16;;;;;;;6.18;1.20;;;12.30;64.90;;;;;;5073287;28;20490;-83
2021/10/06 08:20:49;;;;;;;2.20;0.75;;;12.20;65.40;;;;;;5076410;28;20461;-81
2021/10/06 08:23:17;;;;;;;5.88;1.00;;;12.20;64.70;;;;;;5078021;28;20032;-82
2021/10/06 08:25:47;;;;;;;4.78;1.02;;;12.00;62.00;;;;;;5076318;28;20080;-82
2021/10/06 08:28:13;;;;;;;2.88;0.77;;;12.10;61.60;;;;;;5076042;28;20025;-80
2021/10/06 08:30:38;;;;;;;4.35;0.70;;;12.30;61.70;;;;;;5073566;28;20090;-83
2021/10/06 08:33:04;;;;;;;3.72;1.05;;;12.20;61.20;;;;;;5072502;28;20020;-83
2021/10/06 08:35:30;;;;;;;4.22;0.90;;;12.30;62.60;;;;;;5072673;28;20027;-83
2021/10/06 08:37:55;;;;;;;1.67;0.40;;;12.30;61.70;;;;;;5072840;28;20091;-82
2021/10/06 08:40:22;;;;;;;4.38;0.93;;;12.40;61.50;;;;;;5071736;28;20039;-84
2021/10/06 08:42:48;;;;;;;2.45;0.60;;;12.10;62.10;;;;;;5072508;28;20036;-72
2021/10/06 08:45:14;;;;;;;4.22;1.23;;;11.90;62.50;;;;;;5072323;28;20025;-75
2021/10/06 08:47:40;;;;;;;3.78;0.82;;;12.00;62.70;;;;;;5072556;28;20366;-76
2021/10/06 08:50:16;;;;;;;3.88;0.73;;;12.20;62.30;;;;;;5072421;28;20028;-76
2021/10/06 08:52:46;;;;;;;3.08;1.00;;;12.40;62.20;;;;;;5072425;28;20523;-76
2021/10/06 08:55:11;;;;;;;4.68;0.60;;;12.50;61.10;;;;;;5072283;28;20500;-76
2021/10/06 08:57:37;;;;;;;2.95;0.75;;;12.80;60.40;;;;;;5072124;28;20032;-76
2021/10/06 09:00:04;;;;;;;4.90;0.73;;;13.00;58.20;;;;;;5072334;28;20534;-74
2021/10/06 09:02:37;;;;;;;5.88;1.23;;;12.60;58.30;;;;;;5072422;28;20044;-72
2021/10/06 09:05:03;;;;;;;4.55;1.00;;;12.50;59.20;;;;;;5075105;28;20016;-74
2021/10/06 09:07:28;;;;;;;3.58;1.10;;;12.40;61.00;;;;;;5076307;28;20104;-74
2021/10/06 09:09:54;;;;;;;6.05;1.48;;;12.30;61.70;;;;;;5074957;28;20166;-74
2021/10/06 09:12:21;;;;;;;4.15;1.00;;;12.00;62.60;;;;;;5076217;28;20044;-74
2021/10/06 09:14:48;;;;;;;2.75;0.95;;;11.80;62.80;;;;;;5076382;28;20111;-74
2021/10/06 09:17:15;;;;;;;4.72;0.93;;;11.70;65.70;;;;;;5076014;28;20033;-75
2021/10/06 09:19:44;;;;;;;3.88;0.75;;;11.70;65.70;;;;;;5076165;28;20507;-74
2021/10/06 09:22:15;;;;;;;2.40;0.88;;;11.60;67.00;;;;;;5075801;28;20036;-75
2021/10/06 09:24:52;;;;;;;7.05;1.20;;;11.70;65.40;;;;;;5075836;28;20021;-73
2021/10/06 09:27:30;;;;;;;5.47;1.15;;;11.70;66.00;;;;;;5075907;28;20059;-74
2021/10/06 09:29:58;;;;;;;7.50;1.23;;;11.70;65.20;;;;;;5075626;28;20462;-76
2021/10/06 09:32:41;;;;;;;6.53;2.97;;;11.90;65.10;;;;;;5075870;28;20029;-75
2021/10/06 09:35:14;;;;;;;3.65;1.88;;;11.90;62.40;;;;;;5075531;28;20435;-76
2021/10/06 09:37:44;;;;;;;10.15;2.70;;;12.10;62.20;;;;;;5074616;28;20112;-76
2021/10/06 09:40:12;;;;;;;9.45;2.55;;;12.20;62.60;;;;;;5075786;28;20469;-75
2021/10/06 09:42:44;;;;;;;4.45;1.50;;;12.40;61.70;;;;;;5074401;28;20463;-76
2021/10/06 09:45:19;;;;;;;5.07;1.88;;;12.30;60.20;;;;;;5075555;28;20017;-75
2021/10/06 09:48:12;;;;;;;9.23;3.40;;;12.40;59.50;;;;;;5075394;28;20024;-77
2021/10/06 09:50:38;;;;;;;5.65;2.25;;;12.60;57.60;;;;;;5075354;28;20770;-76
2021/10/06 09:53:23;;;;;;;5.30;2.42;;;12.60;57.90;;;;;;5075277;28;20032;-76
2021/10/06 09:55:50;;;;;;;5.83;1.70;;;12.90;57.90;;;;;;5074953;28;20046;-75
2021/10/06 09:58:17;;;;;;;7.47;1.88;;;13.10;57.00;;;;;;5074905;28;20112;-75
2021/10/06 10:00:44;;;;;;;2.63;1.00;;;13.10;56.20;;;;;;5074831;28;20466;-74
2021/10/06 10:03:11;;;;;;;9.00;0.80;;;13.30;55.50;;;;;;5074781;28;20033;-75
2021/10/06 10:05:39;;;;;;;3.90;0.80;;;13.10;56.30;;;;;;5074583;28;20043;-75
2021/10/06 10:08:06;;;;;;;4.72;0.70;;;12.90;56.90;;;;;;5074379;28;20028;-73
2021/10/06 10:10:33;;;;;;;3.30;1.17;;;12.80;54.80;;;;;;5074529;28;20465;-77
2021/10/06 10:13:00;;;;;;;5.43;1.20;;;12.70;55.20;;;;;;5074544;28;20024;-76
2021/10/06 10:15:25;;;;;;;3.03;0.93;;;12.60;56.30;;;;;;5074632;28;20032;-74
2021/10/06 10:17:52;;;;;;;5.93;1.70;;;12.40;56.30;;;;;;5074837;28;20021;-74
2021/10/06 10:20:19;;;;;;;4.38;2.22;;;12.30;56.70;;;;;;5074462;28;20361;-74
2021/10/06 10:22:49;;;;;;;4.25;1.08;;;12.30;58.30;;;;;;5074356;28;20107;-74
2021/10/06 10:25:23;;;;;;;3.08;0.60;;;12.40;57.20;;;;;;5074592;28;20048;-73
2021/10/06 10:27:55;;;;;;;3.17;0.90;;;12.40;55.90;;;;;;5074538;28;20025;-73
2021/10/06 10:30:20;;;;;;;5.65;2.92;;;12.60;56.70;;;;;;5074445;28;20501;-76
2021/10/06 10:32:47;;;;;;;5.35;2.40;;;12.50;57.30;;;;;;5074386;28;20033;-74
2021/10/06 10:35:13;;;;;;;4.57;2.58;;;12.80;56.70;;;;;;5074429;28;20485;-74
2021/10/06 10:38:02;;;;;;;5.65;1.80;;;13.00;56.70;;;;;;5074035;28;20036;-74
2021/10/06 10:40:48;;;;;;;2.95;1.27;;;13.20;57.20;;;;;;5074051;28;20016;-77
2021/10/06 10:43:24;;;;;;;5.22;1.40;;;13.20;55.20;;;;;;5073150;28;20028;-75
2021/10/06 10:46:11;;;;;;;3.65;1.08;;;13.00;54.90;;;;;;5073301;28;20488;-73
2021/10/06 10:48:58;;;;;;;8.77;3.20;;;12.90;56.90;;;;;;5072935;28;20016;-73
2021/10/06 10:51:47;;;;;;;5.85;1.70;;;12.60;56.50;;;;;;5072967;28;20024;-73
2021/10/06 10:54:41;;;;;;;6.65;2.05;;;12.50;57.40;;;;;;5071897;28;20385;-73
2021/10/06 10:57:27;;;;;;;3.55;1.02;;;12.30;58.20;;;;;;5070555;28;20047;-75
2021/10/06 10:59:55;;;;;;;2.95;0.80;;;12.40;57.80;;;;;;5072605;28;20478;-73
2021/10/06 11:02:31;;;;;;;5.75;1.50;;;12.50;58.20;;;;;;5073527;28;20041;-73
2021/10/06 11:05:04;;;;;;;5.80;1.17;;;12.60;58.30;;;;;;5074055;28;20024;-73
2021/10/06 11:07:30;;;;;;;5.70;1.20;;;12.70;58.40;;;;;;5073664;28;20091;-74
2021/10/06 11:10:16;;;;;;;4.30;0.77;;;13.20;58.10;;;;;;5074075;28;20154;-74
2021/10/06 11:12:53;;;;;;;2.65;0.52;;;13.70;56.90;;;;;;5073806;28;20020;-73
2021/10/06 11:15:18;;;;;;;5.40;0.82;;;14.40;53.80;;;;;;5073849;28;20040;-74
2021/10/06 11:18:22;;;;;;;2.92;0.70;;;14.70;52.60;;;;;;5073689;28;20491;-74
2021/10/06 11:20:52;;;;;;;5.03;1.45;;;14.90;51.50;;;;;;5069953;28;20028;-73
2021/10/06 11:23:35;;;;;;;3.60;1.27;;;14.70;50.30;;;;;;5073667;28;20119;-74
2021/10/06 11:26:03;;;;;;;2.65;0.75;;;14.00;53.30;;;;;;5073422;28;20091;-75
2021/10/06 11:28:30;;;;;;;6.05;0.57;;;13.20;53.60;;;;;;5074147;28;20635;-75
2021/10/06 11:30:58;;;;;;;5.68;1.05;;;12.70;58.20;;;;;;5077075;28;20049;-75
2021/10/06 11:33:25;;;;;;;4.15;1.00;;;12.50;61.60;;;;;;5080377;28;20037;-75
2021/10/06 11:35:51;;;;;;;4.28;1.13;;;12.50;65.70;;;;;;5077910;28;20100;-74
2021/10/06 11:38:17;;;;;;;9.05;1.88;;;12.30;64.90;;;;;;5074783;28;20031;-74
2021/10/06 11:40:43;;;;;;;4.80;1.30;;;12.10;66.90;;;;;;5073676;28;20020;-75
2021/10/06 11:43:08;;;;;;;3.95;1.15;;;11.90;68.70;;;;;;5073352;28;20063;-75
2021/10/06 11:45:34;;;;;;;3.10;0.70;;;11.90;68.50;;;;;;5072005;28;20021;-75
2021/10/06 11:48:10;;;;;;;3.80;0.63;;;12.00;68.20;;;;;;5073287;28;20481;-75
2021/10/06 11:50:36;;;;;;;1.45;0.70;;;12.40;69.40;;;;;;5073410;28;20043;-75
2021/10/06 11:53:02;;;;;;;2.25;0.50;;;13.10;66.00;;;;;;5073351;28;20017;-75
2021/10/06 11:55:28;;;;;;;1.90;0.60;;;13.80;63.40;;;;;;5073354;28;20032;-75
2021/10/06 11:57:53;;;;;;;3.28;1.17;;;14.60;57.80;;;;;;5073109;28;20517;-75
2021/10/06 12:00:20;;;;;;;4.15;1.10;;;15.30;53.80;;;;;;5072927;28;20349;-76
2021/10/06 12:02:46;;;;;;;2.80;1.50;;;16.20;49.60;;;;;;5071556;28;20029;-75
2021/10/06 12:05:11;;;;;;;4.85;2.30;;;16.90;47.70;;;;;;5072972;28;20082;-75
2021/10/06 12:07:38;;;;;;;3.88;1.45;;;17.50;45.10;;;;;;5072645;28;20032;-75
2021/10/06 12:10:11;;;;;;;5.55;1.10;;;17.80;43.20;;;;;;5072594;28;20024;-75
2021/10/06 12:12:37;;;;;;;3.50;1.20;;;18.30;41.60;;;;;;5072443;28;20040;-75
2021/10/06 12:15:04;;;;;;;6.80;1.50;;;18.80;41.20;;;;;;5072668;28;20028;-75
2021/10/06 12:17:31;;;;;;;2.50;1.10;;;19.00;39.80;;;;;;5072753;28;20031;-75
2021/10/06 12:20:05;;;;;;;2.17;0.75;;;19.00;40.00;;;;;;5071525;28;20074;-75
2021/10/06 12:22:36;;;;;;;4.47;0.57;;;18.30;41.10;;;;;;5072703;28;20033;-74
2021/10/06 12:25:09;;;;;;;4.07;0.80;;;17.60;41.40;;;;;;5072857;28;20385;-75
2021/10/06 12:27:38;;;;;;;3.53;0.75;;;16.70;45.70;;;;;;5072692;28;20078;-74
2021/10/06 12:30:10;;;;;;;2.08;0.40;;;16.40;46.00;;;;;;5072618;28;20036;-74
2021/10/06 12:32:37;;;;;;;1.85;0.80;;;16.50;43.30;;;;;;5072772;28;20060;-74
2021/10/06 12:35:18;;;;;;;7.20;1.00;;;16.50;44.10;;;;;;5072777;28;20020;-74
2021/10/06 12:37:58;;;;;;;4.28;0.90;;;16.30;44.30;;;;;;5070762;28;20111;-75
2021/10/06 12:40:40;;;;;;;2.30;0.45;;;15.80;45.80;;;;;;5072220;28;20048;-75
2021/10/06 12:43:24;;;;;;;2.72;0.77;;;15.20;47.70;;;;;;5072239;28;20036;-75
2021/10/06 12:46:13;;;;;;;3.88;0.60;;;14.90;51.40;;;;;;5072544;28;20504;-74
2021/10/06 12:48:55;;;;;;;2.20;0.30;;;14.20;53.30;;;;;;5072111;28;20036;-75
2021/10/06 12:51:23;;;;;;;2.95;0.45;;;14.10;55.00;;;;;;5072355;28;20107;-74
2021/10/06 12:53:57;;;;;;;1.05;0.30;;;13.80;56.40;;;;;;5072300;28;20385;-75